Fidato — PB5970 — position and weather

sailwx.info

Track history (hours):
 
Tides and Currents Weather Stations Pressure Air Temp Water Temp Dewpoint Dewpoint Depression Visibility Wind Speed Wind Dir Waves Ship Positions

Fidato

Last reported at 2016-May-29 06:12 UTC. Time now 2016-May-30 08:51 UTC.
Position N 49°58' E 009°05'.

Length 135 m; draft 2.5 m.

Type: Ship. MMSI: 244670975.

Date/timePositionNaut miles runAvg speedWind from/ knotsBaromVisibWave heightAir tempDewpointWater temp
2016-May-29 06:12N 49°58' E 009°05'2 3.1
2016-May-29 05:24N 50°00' E 009°03'3 3.6
2016-May-29 04:33N 50°02' E 008°59'2 2.4
2016-May-29 03:33N 50°05' E 008°58'0 0.0
2016-May-29 02:33N 50°05' E 008°58'0 0.0
2016-May-29 01:33N 50°05' E 008°58'0 0.0
2016-May-29 00:33N 50°05' E 008°58'0 0.0
2016-May-28 23:33N 50°05' E 008°58'0 0.0
2016-May-28 22:32N 50°05' E 008°58'0 0.0
2016-May-28 21:33N 50°05' E 008°58'0 0.0
2016-May-28 20:28N 50°05' E 008°58'0 0.3
2016-May-28 19:33N 50°05' E 008°58'4 3.8
2016-May-28 18:33N 50°08' E 008°54'3 2.7
2016-May-28 17:33N 50°08' E 008°49'3 3.5
2016-May-28 16:33N 50°07' E 008°44'1 1.2
2016-May-28 15:33N 50°06' E 008°43'  
2016-May-24 11:33N 50°43' E 007°08'6 5.1
2016-May-24 10:23N 50°48' E 007°02'3 4.0
2016-May-24 09:32N 50°51' E 006°59'3 3.0
2016-May-24 08:32N 50°54' E 007°01'13 4.1
2016-May-24 05:19N 51°06' E 006°52'3 4.4
2016-May-24 04:33N 51°09' E 006°51'0 0.0
2016-May-23 18:33N 51°09' E 006°52'3 2.6
2016-May-23 17:34N 51°11' E 006°48'4 4.0
2016-May-23 16:33N 51°14' E 006°44'2 1.8
2016-May-23 15:33N 51°15' E 006°43'15 3.7
2016-May-23 11:31N 51°30' E 006°43'5 4.8
2016-May-23 10:33N 51°35' E 006°40'4 4.0
2016-May-23 09:33N 51°37' E 006°35'4 3.8
2016-May-23 08:33N 51°40' E 006°31'53 2.8
2016-May-22 13:17N 51°49' E 005°06'5 6.3
2016-May-22 12:33N 51°49' E 004°59'7 7.1
2016-May-22 11:33N 51°49' E 004°47'6 6.4
2016-May-22 10:33N 51°52' E 004°38'6 6.1
2016-May-22 09:33N 51°54' E 004°29'8 7.8
2016-May-22 08:33N 51°53' E 004°16'0 0.1
2016-May-22 07:33N 51°53' E 004°16'0 0.0
2016-May-22 06:33N 51°53' E 004°16'0 0.0
2016-May-22 05:33N 51°53' E 004°16'0 0.0
2016-May-22 04:33N 51°53' E 004°16'0 0.0
2016-May-22 03:33N 51°53' E 004°16'0 0.0
2016-May-22 02:33N 51°53' E 004°16'0 0.0
2016-May-22 01:33N 51°53' E 004°16'0 0.1
2016-May-22 00:33N 51°53' E 004°16'0 0.2
2016-May-21 23:33N 51°53' E 004°16'0 0.0
2016-May-21 22:33N 51°53' E 004°16'0 0.1
2016-May-21 21:33N 51°53' E 004°16'0 0.1
2016-May-21 20:33N 51°53' E 004°16'0 0.0
2016-May-21 19:33N 51°53' E 004°16'0 0.0
2016-May-21 18:32N 51°53' E 004°16'0 0.0
2016-May-21 17:33N 51°53' E 004°16'0 0.1
2016-May-21 16:33N 51°53' E 004°16'0 0.0
2016-May-21 15:33N 51°53' E 004°16'0 0.0
2016-May-21 14:33N 51°53' E 004°16'0 0.0
2016-May-21 13:33N 51°53' E 004°16'0 0.0
2016-May-21 12:33N 51°53' E 004°16'8 7.6
2016-May-21 11:33N 51°50' E 004°27'7 7.5
2016-May-21 10:34N 51°49' E 004°39'4 3.6
2016-May-21 09:33N 51°45' E 004°38'16 7.8
2016-May-21 07:28N 51°38' E 004°14'9 9.9
2016-May-21 06:33N 51°29' E 004°13'7 6.6
2016-May-21 05:33N 51°23' E 004°16'4 4.1
2016-May-21 04:33N 51°19' E 004°19'0 0.0
2016-May-21 03:33N 51°19' E 004°19'0 0.0
2016-May-21 02:34N 51°19' E 004°19'0 0.0
2016-May-21 01:34N 51°19' E 004°19'0 0.0
2016-May-21 00:33N 51°19' E 004°19'0 0.0
2016-May-20 23:33N 51°19' E 004°19'0 0.0
2016-May-20 22:33N 51°19' E 004°19'0 0.3
2016-May-20 21:33N 51°19' E 004°19'3 3.2
2016-May-20 20:33N 51°16' E 004°17'0 0.3
2016-May-20 19:33N 51°16' E 004°16'1 0.6
2016-May-20 18:33N 51°16' E 004°16'0 0.0
2016-May-20 17:33N 51°16' E 004°16'0 0.0
2016-May-20 16:33N 51°16' E 004°16'0 0.0
2016-May-20 15:33N 51°16' E 004°16'0 0.0
2016-May-20 14:33N 51°16' E 004°16'0 0.0
2016-May-20 13:33N 51°16' E 004°16'0 0.0
2016-May-20 12:33N 51°16' E 004°16'0 0.0
2016-May-20 11:33N 51°16' E 004°16'0 0.0
2016-May-20 10:33N 51°16' E 004°16'0 0.0
2016-May-20 09:33N 51°16' E 004°16'0 0.0
2016-May-20 08:33N 51°16' E 004°16'0 0.0
2016-May-20 07:33N 51°16' E 004°16'0 0.0
2016-May-20 06:33N 51°16' E 004°16'0 0.0
2016-May-20 05:33N 51°16' E 004°16'0 0.0
2016-May-20 04:33N 51°16' E 004°16'0 0.0
2016-May-20 03:33N 51°16' E 004°16'0 0.0
2016-May-20 02:33N 51°16' E 004°16'0 0.0
2016-May-20 01:33N 51°16' E 004°16'0 0.0
2016-May-20 00:33N 51°16' E 004°16'0 0.0
2016-May-19 23:33N 51°16' E 004°16'0 0.0
2016-May-19 22:33N 51°16' E 004°16'0 0.0
2016-May-19 21:33N 51°16' E 004°16'0 0.0
2016-May-19 20:33N 51°16' E 004°16'0 0.0
2016-May-19 19:33N 51°16' E 004°16'0 0.0
2016-May-19 18:33N 51°16' E 004°16'0 0.0
2016-May-19 17:33N 51°16' E 004°16'0 0.4
2016-May-19 16:33N 51°16' E 004°16'1 1.4
2016-May-19 15:33N 51°16' E 004°18'4 3.9
2016-May-19 14:33N 51°20' E 004°16'1 1.3
2016-May-19 13:33N 51°21' E 004°18'2 1.7
2016-May-19 12:34N 51°22' E 004°17'5 5.3
2016-May-19 11:33N 51°27' E 004°14'16 6.8
2016-May-19 09:14N 51°42' E 004°25'6 8.5
2016-May-19 08:31N 51°42' E 004°34'7 7.5
2016-May-19 07:33N 51°49' E 004°39'4 3.9
2016-May-19 06:33N 51°53' E 004°38'  
Track history (hours):
 
Tides and Currents Weather Stations Pressure Air Temp Water Temp Dewpoint Dewpoint Depression Visibility Wind Speed Wind Dir Waves Ship Positions

Fidato

Last reported at 2016-May-29 06:12 UTC. Time now 2016-May-30 08:51 UTC.
Position N 49°58' E 009°05'.

Length 135 m; draft 2.5 m.

Type: Ship. MMSI: 244670975.

Date/timePositionNaut miles runAvg speedWind from/ knotsBaromVisibWave heightAir tempDewpointWater temp
2016-May-29 06:12N 49°58' E 009°05'2 3.1
2016-May-29 05:24N 50°00' E 009°03'3 3.6
2016-May-29 04:33N 50°02' E 008°59'2 2.4
2016-May-29 03:33N 50°05' E 008°58'0 0.0
2016-May-29 02:33N 50°05' E 008°58'0 0.0
2016-May-29 01:33N 50°05' E 008°58'0 0.0
2016-May-29 00:33N 50°05' E 008°58'0 0.0
2016-May-28 23:33N 50°05' E 008°58'0 0.0
2016-May-28 22:32N 50°05' E 008°58'0 0.0
2016-May-28 21:33N 50°05' E 008°58'0 0.0
2016-May-28 20:28N 50°05' E 008°58'0 0.3
2016-May-28 19:33N 50°05' E 008°58'4 3.8
2016-May-28 18:33N 50°08' E 008°54'3 2.7
2016-May-28 17:33N 50°08' E 008°49'3 3.5
2016-May-28 16:33N 50°07' E 008°44'1 1.2
2016-May-28 15:33N 50°06' E 008°43'  
2016-May-24 11:33N 50°43' E 007°08'6 5.1
2016-May-24 10:23N 50°48' E 007°02'3 4.0
2016-May-24 09:32N 50°51' E 006°59'3 3.0
2016-May-24 08:32N 50°54' E 007°01'13 4.1
2016-May-24 05:19N 51°06' E 006°52'3 4.4
2016-May-24 04:33N 51°09' E 006°51'0 0.0
2016-May-23 18:33N 51°09' E 006°52'3 2.6
2016-May-23 17:34N 51°11' E 006°48'4 4.0
2016-May-23 16:33N 51°14' E 006°44'2 1.8
2016-May-23 15:33N 51°15' E 006°43'15 3.7
2016-May-23 11:31N 51°30' E 006°43'5 4.8
2016-May-23 10:33N 51°35' E 006°40'4 4.0
2016-May-23 09:33N 51°37' E 006°35'4 3.8
2016-May-23 08:33N 51°40' E 006°31'53 2.8
2016-May-22 13:17N 51°49' E 005°06'5 6.3
2016-May-22 12:33N 51°49' E 004°59'7 7.1
2016-May-22 11:33N 51°49' E 004°47'6 6.4
2016-May-22 10:33N 51°52' E 004°38'6 6.1
2016-May-22 09:33N 51°54' E 004°29'8 7.8
2016-May-22 08:33N 51°53' E 004°16'0 0.1
2016-May-22 07:33N 51°53' E 004°16'0 0.0
2016-May-22 06:33N 51°53' E 004°16'0 0.0
2016-May-22 05:33N 51°53' E 004°16'0 0.0
2016-May-22 04:33N 51°53' E 004°16'0 0.0
2016-May-22 03:33N 51°53' E 004°16'0 0.0
2016-May-22 02:33N 51°53' E 004°16'0 0.0
2016-May-22 01:33N 51°53' E 004°16'0 0.1
2016-May-22 00:33N 51°53' E 004°16'0 0.2
2016-May-21 23:33N 51°53' E 004°16'0 0.0
2016-May-21 22:33N 51°53' E 004°16'0 0.1
2016-May-21 21:33N 51°53' E 004°16'0 0.1
2016-May-21 20:33N 51°53' E 004°16'0 0.0
2016-May-21 19:33N 51°53' E 004°16'0 0.0
2016-May-21 18:32N 51°53' E 004°16'0 0.0
2016-May-21 17:33N 51°53' E 004°16'0 0.1
2016-May-21 16:33N 51°53' E 004°16'0 0.0
2016-May-21 15:33N 51°53' E 004°16'0 0.0
2016-May-21 14:33N 51°53' E 004°16'0 0.0
2016-May-21 13:33N 51°53' E 004°16'0 0.0
2016-May-21 12:33N 51°53' E 004°16'8 7.6
2016-May-21 11:33N 51°50' E 004°27'7 7.5
2016-May-21 10:34N 51°49' E 004°39'4 3.6
2016-May-21 09:33N 51°45' E 004°38'16 7.8
2016-May-21 07:28N 51°38' E 004°14'9 9.9
2016-May-21 06:33N 51°29' E 004°13'7 6.6
2016-May-21 05:33N 51°23' E 004°16'4 4.1
2016-May-21 04:33N 51°19' E 004°19'0 0.0
2016-May-21 03:33N 51°19' E 004°19'0 0.0
2016-May-21 02:34N 51°19' E 004°19'0 0.0
2016-May-21 01:34N 51°19' E 004°19'0 0.0
2016-May-21 00:33N 51°19' E 004°19'0 0.0
2016-May-20 23:33N 51°19' E 004°19'0 0.0
2016-May-20 22:33N 51°19' E 004°19'0 0.3
2016-May-20 21:33N 51°19' E 004°19'3 3.2
2016-May-20 20:33N 51°16' E 004°17'0 0.3
2016-May-20 19:33N 51°16' E 004°16'1 0.6
2016-May-20 18:33N 51°16' E 004°16'0 0.0
2016-May-20 17:33N 51°16' E 004°16'0 0.0
2016-May-20 16:33N 51°16' E 004°16'0 0.0
2016-May-20 15:33N 51°16' E 004°16'0 0.0
2016-May-20 14:33N 51°16' E 004°16'0 0.0
2016-May-20 13:33N 51°16' E 004°16'0 0.0
2016-May-20 12:33N 51°16' E 004°16'0 0.0
2016-May-20 11:33N 51°16' E 004°16'0 0.0
2016-May-20 10:33N 51°16' E 004°16'0 0.0
2016-May-20 09:33N 51°16' E 004°16'0 0.0
2016-May-20 08:33N 51°16' E 004°16'0 0.0
2016-May-20 07:33N 51°16' E 004°16'0 0.0
2016-May-20 06:33N 51°16' E 004°16'0 0.0
2016-May-20 05:33N 51°16' E 004°16'0 0.0
2016-May-20 04:33N 51°16' E 004°16'0 0.0
2016-May-20 03:33N 51°16' E 004°16'0 0.0
2016-May-20 02:33N 51°16' E 004°16'0 0.0
2016-May-20 01:33N 51°16' E 004°16'0 0.0
2016-May-20 00:33N 51°16' E 004°16'0 0.0
2016-May-19 23:33N 51°16' E 004°16'0 0.0
2016-May-19 22:33N 51°16' E 004°16'0 0.0
2016-May-19 21:33N 51°16' E 004°16'0 0.0
2016-May-19 20:33N 51°16' E 004°16'0 0.0
2016-May-19 19:33N 51°16' E 004°16'0 0.0
2016-May-19 18:33N 51°16' E 004°16'0 0.0
2016-May-19 17:33N 51°16' E 004°16'0 0.4
2016-May-19 16:33N 51°16' E 004°16'1 1.4
2016-May-19 15:33N 51°16' E 004°18'4 3.9
2016-May-19 14:33N 51°20' E 004°16'1 1.3
2016-May-19 13:33N 51°21' E 004°18'2 1.7
2016-May-19 12:34N 51°22' E 004°17'5 5.3
2016-May-19 11:33N 51°27' E 004°14'16 6.8
2016-May-19 09:14N 51°42' E 004°25'6 8.5
2016-May-19 08:31N 51°42' E 004°34'7 7.5
2016-May-19 07:33N 51°49' E 004°39'4 3.9
2016-May-19 06:33N 51°53' E 004°38'  

Dump ship's entire track history